Time,TemperatureF,DewpointF,PressureIn,WindDirection,WindDirectionDegrees,WindSpeedMPH,WindSpeedGustMPH,Humidity,HourlyPrecipIn,Conditions,Clouds,dailyrainin,SoftwareType,DateUTC
2012-05-18 00:00:00,56.0,43.0,29.71,NNW,342,0.0,2.0,61,0.00,,,0.00,weatherlink.com 1.10,2012-05-18 07:00:00,
2012-05-18 00:15:00,54.4,41.0,29.70,NE,46,1.0,2.0,60,0.00,,,0.00,weatherlink.com 1.10,2012-05-18 07:15:00,
2012-05-18 00:30:00,54.2,39.0,29.70,WNW,294,0.0,3.0,57,0.00,,,0.00,weatherlink.com 1.10,2012-05-18 07:30:00,
2012-05-18 00:46:00,53.4,40.0,29.70,North,4,0.0,2.0,60,0.00,,,0.00,weatherlink.com 1.10,2012-05-18 07:46:00,
2012-05-18 01:00:00,53.1,40.0,29.69,NW,309,1.0,3.0,62,0.00,,,0.00,weatherlink.com 1.10,2012-05-18 08:00:00,
2012-05-18 01:15:00,51.8,40.0,29.69,NNE,23,0.0,3.0,65,0.00,,,0.00,weatherlink.com 1.10,2012-05-18 08:15:00,
2012-05-18 01:30:00,52.2,39.0,29.68,ENE,58,0.0,2.0,61,0.00,,,0.00,weatherlink.com 1.10,2012-05-18 08:30:00,
2012-05-18 01:45:00,53.6,33.0,29.68,NNW,343,3.0,5.0,45,0.00,,,0.00,weatherlink.com 1.10,2012-05-18 08:45:00,
2012-05-18 02:00:00,51.0,39.0,29.68,NNW,328,0.0,6.0,64,0.00,,,0.00,weatherlink.com 1.10,2012-05-18 09:00:00,
2012-05-18 02:15:00,47.1,44.0,29.68,North,360,3.0,4.0,88,0.00,,,0.00,weatherlink.com 1.10,2012-05-18 09:15:00,
2012-05-18 02:30:00,46.5,44.0,29.68,NE,48,1.0,4.0,92,0.00,,,0.00,weatherlink.com 1.10,2012-05-18 09:30:00,
2012-05-18 02:45:00,46.2,44.0,29.67,ENE,63,3.0,5.0,93,0.00,,,0.00,weatherlink.com 1.10,2012-05-18 09:45:00,
2012-05-18 03:00:00,45.9,44.0,29.67,NNW,336,1.0,3.0,94,0.00,,,0.00,weatherlink.com 1.10,2012-05-18 10:00:00,
2012-05-18 03:15:00,45.1,43.0,29.67,NW,324,1.0,3.0,93,0.00,,,0.00,weatherlink.com 1.10,2012-05-18 10:15:00,
2012-05-18 03:31:00,45.7,44.0,29.67,North,352,0.0,6.0,94,0.00,,,0.00,weatherlink.com 1.10,2012-05-18 10:31:00,
2012-05-18 03:47:00,45.4,44.0,29.66,NNW,347,0.0,4.0,94,0.00,,,0.00,weatherlink.com 1.10,2012-05-18 10:47:00,
2012-05-18 04:01:00,44.9,44.0,29.67,NNW,340,0.0,4.0,95,0.00,,,0.00,weatherlink.com 1.10,2012-05-18 11:01:00,
2012-05-18 04:16:00,44.6,43.0,29.67,WNW,290,1.0,6.0,95,0.00,,,0.00,weatherlink.com 1.10,2012-05-18 11:16:00,
2012-05-18 04:31:00,44.6,43.0,29.67,North,356,5.0,5.0,95,0.00,,,0.00,weatherlink.com 1.10,2012-05-18 11:31:00,
2012-05-18 04:46:00,44.9,44.0,29.67,NNE,29,2.0,6.0,95,0.00,,,0.00,weatherlink.com 1.10,2012-05-18 11:46:00,
2012-05-18 05:01:00,45.0,44.0,29.67,NW,314,1.0,4.0,96,0.00,,,0.00,weatherlink.com 1.10,2012-05-18 12:01:00,
2012-05-18 05:16:00,45.1,44.0,29.67,North,358,1.0,4.0,96,0.00,,,0.00,weatherlink.com 1.10,2012-05-18 12:16:00,
2012-05-18 05:31:00,45.4,44.0,29.67,South,181,0.0,4.0,96,0.00,,,0.00,weatherlink.com 1.10,2012-05-18 12:31:00,
2012-05-18 05:46:00,45.3,44.0,29.66,NNE,26,0.0,3.0,96,0.00,,,0.00,weatherlink.com 1.10,2012-05-18 12:46:00,
2012-05-18 06:01:00,45.3,44.0,29.66,NW,319,1.0,5.0,96,0.00,,,0.00,weatherlink.com 1.10,2012-05-18 13:01:00,
2012-05-18 06:16:00,45.4,44.0,29.67,NE,43,1.0,4.0,96,0.00,,,0.00,weatherlink.com 1.10,2012-05-18 13:16:00,
2012-05-18 06:31:00,45.4,44.0,29.67,NE,44,1.0,4.0,96,0.00,,,0.00,weatherlink.com 1.10,2012-05-18 13:31:00,
2012-05-18 06:46:00,45.2,44.0,29.67,NW,324,1.0,3.0,96,0.00,,,0.00,weatherlink.com 1.10,2012-05-18 13:46:00,
2012-05-18 07:01:00,44.9,44.0,29.68,NNE,27,2.0,4.0,96,0.00,,,0.00,weatherlink.com 1.10,2012-05-18 14:01:00,
2012-05-18 07:16:00,44.9,44.0,29.68,NE,54,0.0,3.0,96,0.00,,,0.00,weatherlink.com 1.10,2012-05-18 14:16:00,
2012-05-18 07:31:00,44.9,44.0,29.69,NW,311,0.0,5.0,96,0.00,,,0.00,weatherlink.com 1.10,2012-05-18 14:31:00,
2012-05-18 07:46:00,45.2,44.0,29.70,NNW,337,0.0,3.0,96,0.00,,,0.00,weatherlink.com 1.10,2012-05-18 14:46:00,
2012-05-18 08:01:00,45.5,45.0,29.70,ENE,77,0.0,3.0,96,0.00,,,0.00,weatherlink.com 1.10,2012-05-18 15:01:00,
2012-05-18 08:16:00,45.9,45.0,29.70,SSW,210,0.0,4.0,97,0.00,,,0.00,weatherlink.com 1.10,2012-05-18 15:16:00,
2012-05-18 08:31:00,46.2,45.0,29.71,NW,321,2.0,5.0,97,0.00,,,0.00,weatherlink.com 1.10,2012-05-18 15:31:00,
2012-05-18 08:46:00,46.5,46.0,29.71,WNW,288,1.0,4.0,97,0.00,,,0.00,weatherlink.com 1.10,2012-05-18 15:46:00,
2012-05-18 09:01:00,46.7,46.0,29.72,NNE,18,2.0,5.0,97,0.00,,,0.00,weatherlink.com 1.10,2012-05-18 16:01:00,
2012-05-18 09:17:00,47.1,46.0,29.73,NE,44,2.0,6.0,97,0.00,,,0.00,weatherlink.com 1.10,2012-05-18 16:17:00,
2012-05-18 09:31:00,47.2,46.0,29.72,NNE,30,1.0,4.0,97,0.00,,,0.00,weatherlink.com 1.10,2012-05-18 16:31:00,
2012-05-18 09:46:00,47.3,47.0,29.73,SSW,208,0.0,4.0,97,0.00,,,0.00,weatherlink.com 1.10,2012-05-18 16:46:00,
2012-05-18 10:01:00,47.8,47.0,29.74,ENE,67,0.0,3.0,97,0.00,,,0.00,weatherlink.com 1.10,2012-05-18 17:01:00,
2012-05-18 10:16:00,48.1,47.0,29.74,ENE,58,0.0,3.0,97,0.00,,,0.00,weatherlink.com 1.10,2012-05-18 17:16:00,
2012-05-18 10:31:00,48.9,48.0,29.75,NE,34,0.0,1.0,97,0.00,,,0.00,weatherlink.com 1.10,2012-05-18 17:31:00,
2012-05-18 10:46:00,49.3,48.0,29.76,WSW,253,0.0,1.0,96,0.00,,,0.00,weatherlink.com 1.10,2012-05-18 17:46:00,
2012-05-18 11:01:00,49.3,48.0,29.76,WNW,301,0.0,1.0,96,0.00,,,0.00,weatherlink.com 1.10,2012-05-18 18:01:00,
2012-05-18 11:16:00,49.5,48.0,29.77,North,9,0.0,3.0,96,0.00,,,0.00,weatherlink.com 1.10,2012-05-18 18:16:00,
2012-05-18 11:31:00,49.9,49.0,29.77,NW,322,1.0,3.0,96,0.00,,,0.00,weatherlink.com 1.10,2012-05-18 18:31:00,
2012-05-18 11:46:00,50.3,49.0,29.78,West,269,0.0,2.0,96,0.00,,,0.00,weatherlink.com 1.10,2012-05-18 18:46:00,
2012-05-18 12:01:00,51.6,51.0,29.77,SW,215,0.0,2.0,96,0.00,,,0.00,weatherlink.com 1.10,2012-05-18 19:01:00,
2012-05-18 12:16:00,53.1,51.0,29.77,North,349,0.0,3.0,92,0.00,,,0.00,weatherlink.com 1.10,2012-05-18 19:16:00,
2012-05-18 12:31:00,55.4,51.0,29.77,SW,225,1.0,5.0,85,0.00,,,0.00,weatherlink.com 1.10,2012-05-18 19:31:00,
2012-05-18 13:02:00,61.2,52.0,29.78,SSE,152,1.0,3.0,72,0.00,,,0.00,weatherlink.com 1.10,2012-05-18 20:02:00,
2012-05-18 13:17:00,62.1,51.0,29.79,WNW,291,4.0,4.0,68,0.00,,,0.00,weatherlink.com 1.10,2012-05-18 20:17:00,
2012-05-18 13:47:00,61.1,50.0,29.79,SW,234,0.0,4.0,68,0.00,,,0.00,weatherlink.com 1.10,2012-05-18 20:47:00,
2012-05-18 14:02:00,62.6,51.0,29.80,West,262,1.0,3.0,66,0.00,,,0.00,weatherlink.com 1.10,2012-05-18 21:02:00,
2012-05-18 14:17:00,63.3,51.0,29.79,SE,131,0.0,3.0,65,0.00,,,0.00,weatherlink.com 1.10,2012-05-18 21:17:00,
2012-05-18 14:32:00,63.6,50.0,29.80,WNW,298,2.0,5.0,62,0.00,,,0.00,weatherlink.com 1.10,2012-05-18 21:32:00,
2012-05-18 14:47:00,64.0,51.0,29.80,SSW,211,0.0,4.0,63,0.00,,,0.00,weatherlink.com 1.10,2012-05-18 21:47:00,
2012-05-18 15:02:00,64.7,51.0,29.80,ESE,120,2.0,3.0,61,0.00,,,0.00,weatherlink.com 1.10,2012-05-18 22:02:00,
2012-05-18 15:17:00,64.3,50.0,29.79,NNW,334,3.0,3.0,60,0.00,,,0.00,weatherlink.com 1.10,2012-05-18 22:17:00,
2012-05-18 15:32:00,63.2,49.0,29.79,NNE,27,0.0,5.0,61,0.00,,,0.00,weatherlink.com 1.10,2012-05-18 22:32:00,
2012-05-18 15:47:00,63.5,50.0,29.79,WNW,292,1.0,3.0,61,0.00,,,0.00,weatherlink.com 1.10,2012-05-18 22:47:00,
2012-05-18 16:02:00,63.5,49.0,29.79,WSW,238,0.0,5.0,60,0.00,,,0.00,weatherlink.com 1.10,2012-05-18 23:02:00,
2012-05-18 16:17:00,63.3,49.0,29.80,West,264,1.0,4.0,61,0.00,,,0.00,weatherlink.com 1.10,2012-05-18 23:17:00,
2012-05-18 16:32:00,63.3,49.0,29.80,SW,233,0.0,6.0,60,0.00,,,0.00,weatherlink.com 1.10,2012-05-18 23:32:00,
2012-05-18 16:47:00,63.6,49.0,29.80,NNE,30,1.0,4.0,59,0.00,,,0.00,weatherlink.com 1.10,2012-05-18 23:47:00,
2012-05-18 17:02:00,63.0,48.0,29.81,NNW,345,0.0,3.0,59,0.00,,,0.00,weatherlink.com 1.10,2012-05-19 00:02:00,
2012-05-18 17:17:00,61.2,47.0,29.80,North,1,2.0,3.0,61,0.00,,,0.00,weatherlink.com 1.10,2012-05-19 00:17:00,
2012-05-18 17:32:00,60.1,48.0,29.81,SW,215,1.0,3.0,65,0.00,,,0.00,weatherlink.com 1.10,2012-05-19 00:32:00,
2012-05-18 17:47:00,59.5,48.0,29.82,NNW,331,0.0,3.0,67,0.00,,,0.00,weatherlink.com 1.10,2012-05-19 00:47:00,
2012-05-18 18:02:00,59.2,48.0,29.82,WNW,295,0.0,4.0,66,0.00,,,0.00,weatherlink.com 1.10,2012-05-19 01:02:00,
2012-05-18 18:17:00,58.5,48.0,29.82,WNW,295,1.0,3.0,68,0.00,,,0.00,weatherlink.com 1.10,2012-05-19 01:17:00,
2012-05-18 18:32:00,57.6,48.0,29.82,SW,236,1.0,2.0,70,0.00,,,0.00,weatherlink.com 1.10,2012-05-19 01:32:00,
2012-05-18 18:48:00,56.5,47.0,29.82,West,273,0.0,4.0,71,0.00,,,0.00,weatherlink.com 1.10,2012-05-19 01:48:00,
2012-05-18 19:02:00,55.8,47.0,29.83,NW,319,1.0,2.0,73,0.00,,,0.00,weatherlink.com 1.10,2012-05-19 02:02:00,
2012-05-18 19:17:00,55.0,47.0,29.83,NE,48,2.0,5.0,75,0.00,,,0.00,weatherlink.com 1.10,2012-05-19 02:17:00,
2012-05-18 19:32:00,54.2,47.0,29.84,West,279,1.0,2.0,77,0.00,,,0.00,weatherlink.com 1.10,2012-05-19 02:32:00,
2012-05-18 19:47:00,53.2,47.0,29.84,NNE,19,1.0,3.0,80,0.00,,,0.00,weatherlink.com 1.10,2012-05-19 02:47:00,
2012-05-18 20:02:00,52.5,47.0,29.85,NNE,20,0.0,6.0,81,0.00,,,0.00,weatherlink.com 1.10,2012-05-19 03:02:00,
2012-05-18 20:17:00,51.9,47.0,29.86,NE,38,0.0,3.0,83,0.00,,,0.00,weatherlink.com 1.10,2012-05-19 03:17:00,
2012-05-18 20:32:00,51.1,47.0,29.86,West,280,0.0,5.0,87,0.00,,,0.00,weatherlink.com 1.10,2012-05-19 03:32:00,
2012-05-18 20:47:00,50.8,48.0,29.86,NW,312,1.0,5.0,90,0.00,,,0.00,weatherlink.com 1.10,2012-05-19 03:47:00,
2012-05-18 21:02:00,50.4,48.0,29.86,North,349,0.0,6.0,91,0.00,,,0.00,weatherlink.com 1.10,2012-05-19 04:02:00,
2012-05-18 21:17:00,49.9,48.0,29.86,NNW,330,0.0,4.0,92,0.00,,,0.00,weatherlink.com 1.10,2012-05-19 04:17:00,
2012-05-18 21:32:00,48.6,46.0,29.87,NNW,345,0.0,2.0,90,0.00,,,0.00,weatherlink.com 1.10,2012-05-19 04:32:00,
2012-05-18 21:47:00,47.0,44.0,29.88,NNE,25,0.0,3.0,88,0.00,,,0.00,weatherlink.com 1.10,2012-05-19 04:47:00,
2012-05-18 22:02:00,47.1,45.0,29.88,NNE,18,1.0,3.0,92,0.00,,,0.00,weatherlink.com 1.10,2012-05-19 05:02:00,
2012-05-18 22:17:00,47.6,44.0,29.88,NNE,16,0.0,1.0,86,0.00,,,0.00,weatherlink.com 1.10,2012-05-19 05:17:00,
2012-05-18 22:33:00,45.7,42.0,29.89,NNE,23,1.0,2.0,88,0.00,,,0.00,weatherlink.com 1.10,2012-05-19 05:33:00,
2012-05-18 22:48:00,45.2,42.0,29.89,NNE,26,2.0,2.0,88,0.00,,,0.00,weatherlink.com 1.10,2012-05-19 05:48:00,
2012-05-18 23:03:00,45.3,40.0,29.89,NNE,23,2.0,3.0,81,0.00,,,0.00,weatherlink.com 1.10,2012-05-19 06:03:00,
2012-05-18 23:18:00,45.2,39.0,29.89,NNE,24,2.0,4.0,80,0.00,,,0.00,weatherlink.com 1.10,2012-05-19 06:18:00,
2012-05-18 23:33:00,48.6,44.0,29.89,North,9,3.0,4.0,83,0.00,,,0.00,weatherlink.com 1.10,2012-05-19 06:33:00,
2012-05-18 23:48:00,51.0,44.0,29.89,North,349,1.0,4.0,76,0.00,,,0.00,weatherlink.com 1.10,2012-05-19 06:48:00,